Time;durP1;ratioP1;P1;durP2;ratioP2;P2;SDS_P1;SDS_P2;PMS_P1;PMS_P2;Temp;Humidity;BMP_temperature;BMP_pressure;BME280_temperature;BME280_humidity;BME280_pressure;Samples;Min_cycle;Max_cycle;Signal;HPM_P1;HPM_P2
2024/01/08 00:00:50;;;;;;;4.18;2.50;;;;;;;1.07;52.67;101354.78;4226512;28;20281;-66
2024/01/08 00:02:53;;;;;;;6.00;2.50;;;;;;;1.18;52.07;101347.81;4227969;28;20127;-66
2024/01/08 00:04:55;;;;;;;7.57;2.42;;;;;;;1.23;52.14;101356.69;4226859;28;20036;-64
2024/01/08 00:06:58;;;;;;;4.72;2.80;;;;;;;1.02;52.56;101351.00;4224763;28;20123;-64
2024/01/08 00:09:01;;;;;;;3.40;2.58;;;;;;;0.98;52.86;101356.72;4223676;28;20440;-66
2024/01/08 00:11:04;;;;;;;3.90;2.47;;;;;;;1.09;52.37;101353.19;4227058;28;20071;-65
2024/01/08 00:13:07;;;;;;;5.30;2.70;;;;;;;0.92;52.83;101357.22;4229367;28;20032;-65
2024/01/08 00:15:11;;;;;;;3.30;2.05;;;;;;;0.93;52.52;101351.28;4224490;28;20070;-65
2024/01/08 00:17:14;;;;;;;3.72;2.33;;;;;;;1.10;52.62;101354.97;4214702;28;20127;-65
2024/01/08 00:19:17;;;;;;;4.45;2.50;;;;;;;0.93;52.80;101353.84;4223111;28;20050;-66
2024/01/08 00:21:20;;;;;;;3.55;2.42;;;;;;;1.02;53.11;101359.59;4230004;28;20051;-65
2024/01/08 00:23:24;;;;;;;4.50;2.40;;;;;;;1.09;52.76;101362.56;4216536;28;20214;-65
2024/01/08 00:25:26;;;;;;;4.15;2.63;;;;;;;1.15;52.23;101355.28;4224888;28;20516;-64
2024/01/08 00:27:29;;;;;;;3.85;2.30;;;;;;;1.10;52.17;101361.78;4226725;28;20027;-65
2024/01/08 00:29:31;;;;;;;3.40;2.10;;;;;;;1.08;52.63;101355.66;4221262;28;20048;-65
2024/01/08 00:31:35;;;;;;;2.78;2.05;;;;;;;1.04;52.34;101352.03;4223761;28;20042;-65
2024/01/08 00:33:39;;;;;;;3.70;2.25;;;;;;;0.97;53.04;101348.16;4229742;28;20044;-64
2024/01/08 00:35:42;;;;;;;4.18;2.05;;;;;;;1.03;52.60;101353.66;4221949;28;20115;-64
2024/01/08 00:37:45;;;;;;;3.28;2.10;;;;;;;1.10;52.00;101349.88;4213040;28;20045;-64
2024/01/08 00:39:48;;;;;;;5.85;2.33;;;;;;;1.15;52.43;101347.59;4217789;27;20046;-64
2024/01/08 00:41:51;;;;;;;4.32;2.38;;;;;;;0.90;53.00;101351.06;4228044;28;20477;-64
2024/01/08 00:43:54;;;;;;;4.53;2.20;;;;;;;1.13;52.63;101352.63;4221638;28;20058;-64
2024/01/08 00:45:56;;;;;;;4.55;2.40;;;;;;;1.09;52.66;101349.75;4220542;28;20455;-64
2024/01/08 00:48:00;;;;;;;5.43;2.38;;;;;;;0.95;53.26;101344.63;4213247;28;20032;-64
2024/01/08 00:50:13;;;;;;;4.75;2.35;;;;;;;1.04;52.91;101344.34;4218098;28;20040;-64
2024/01/08 00:52:16;;;;;;;3.22;2.22;;;;;;;1.02;53.02;101351.91;4226332;28;20093;-64
2024/01/08 00:54:19;;;;;;;4.32;2.58;;;;;;;1.08;53.09;101342.84;4219743;27;20464;-64
2024/01/08 00:56:22;;;;;;;3.53;2.38;;;;;;;1.04;53.13;101344.34;4247170;27;20043;-63
2024/01/08 00:58:25;;;;;;;3.70;2.15;;;;;;;0.90;53.77;101350.19;4214621;28;20089;-63
2024/01/08 01:00:28;;;;;;;5.65;2.38;;;;;;;1.05;53.69;101351.22;4225584;28;20032;-64
2024/01/08 01:02:31;;;;;;;2.90;2.03;;;;;;;1.15;53.26;101355.28;4225753;28;20485;-63
2024/01/08 01:04:35;;;;;;;3.72;2.22;;;;;;;1.15;53.35;101351.03;4224900;28;20043;-63
2024/01/08 01:06:38;;;;;;;3.80;3.15;;;;;;;1.14;53.44;101346.72;4225075;28;20475;-63
2024/01/08 01:08:41;;;;;;;4.38;2.40;;;;;;;1.11;53.22;101356.78;4219312;28;20091;-63
2024/01/08 01:10:44;;;;;;;4.53;2.10;;;;;;;1.33;52.22;101353.94;4221277;28;20139;-61
2024/01/08 01:12:47;;;;;;;2.55;1.80;;;;;;;1.26;52.32;101348.34;4227240;28;20370;-62
2024/01/08 01:14:50;;;;;;;3.85;2.05;;;;;;;1.17;52.78;101353.72;4226742;28;20063;-62
2024/01/08 01:16:53;;;;;;;3.60;2.28;;;;;;;1.17;52.92;101356.28;4220730;28;20031;-62
2024/01/08 01:18:56;;;;;;;3.08;1.88;;;;;;;1.12;53.04;101357.66;4218040;28;20115;-62
2024/01/08 01:21:00;;;;;;;2.45;1.70;;;;;;;1.15;52.56;101351.03;4220172;28;20479;-62
2024/01/08 01:23:04;;;;;;;2.80;2.03;;;;;;;1.02;53.22;101357.03;4223241;27;20058;-62
2024/01/08 01:25:07;;;;;;;2.65;1.75;;;;;;;1.21;52.57;101354.03;4223310;28;20106;-63
2024/01/08 01:27:10;;;;;;;3.58;1.90;;;;;;;1.18;52.75;101355.47;4222093;28;20051;-62
2024/01/08 01:29:13;;;;;;;2.88;2.10;;;;;;;1.20;52.75;101357.38;4227291;28;20097;-63
2024/01/08 01:31:16;;;;;;;3.42;2.03;;;;;;;1.16;52.95;101359.63;4223238;28;20123;-62
2024/01/08 01:33:18;;;;;;;3.90;2.47;;;;;;;1.21;52.70;101356.59;4223856;28;20050;-63
2024/01/08 01:35:22;;;;;;;4.45;2.70;;;;;;;1.12;52.99;101357.66;4204433;28;20554;-63
2024/01/08 01:37:26;;;;;;;4.53;2.60;;;;;;;1.24;53.03;101357.56;4227897;28;20047;-64
2024/01/08 01:39:29;;;;;;;5.03;2.40;;;;;;;1.24;52.79;101361.00;4223026;28;20043;-64
2024/01/08 01:41:32;;;;;;;3.20;2.10;;;;;;;1.21;52.80;101363.38;4224717;28;20074;-65
2024/01/08 01:43:35;;;;;;;3.88;2.45;;;;;;;1.06;53.68;101362.38;4224764;28;20040;-65
2024/01/08 01:45:38;;;;;;;6.28;2.80;;;;;;;1.15;53.20;101358.72;4224742;28;20044;-65
2024/01/08 01:47:41;;;;;;;6.85;2.63;;;;;;;1.26;53.11;101363.69;4223132;28;20134;-64
2024/01/08 01:49:44;;;;;;;7.10;2.78;;;;;;;1.11;53.73;101356.78;4221981;28;20031;-65
2024/01/08 01:51:48;;;;;;;4.85;2.45;;;;;;;1.16;53.98;101362.19;4234257;27;20038;-64
2024/01/08 01:53:53;;;;;;;4.18;2.25;;;;;;;1.12;53.72;101355.97;4222057;28;20127;-64
2024/01/08 01:55:56;;;;;;;4.65;2.58;;;;;;;1.22;53.41;101354.91;4225107;28;20095;-64
2024/01/08 01:57:59;;;;;;;5.07;2.95;;;;;;;1.16;53.31;101357.06;4223175;28;20036;-65
2024/01/08 02:00:03;;;;;;;5.45;2.50;;;;;;;1.13;53.98;101351.75;4222525;28;20478;-65
2024/01/08 02:02:14;;;;;;;5.32;2.35;;;;;;;1.10;54.12;101357.53;4222762;28;20048;-64
2024/01/08 02:04:17;;;;;;;3.75;2.15;;;;;;;1.12;53.73;101349.97;4223870;28;20036;-63
2024/01/08 02:06:22;;;;;;;3.58;2.15;;;;;;;1.17;54.02;101346.94;4213656;28;20044;-63
2024/01/08 02:08:25;;;;;;;;;;;;;;;1.16;53.87;101346.81;4222590;28;20035;-64
2024/01/08 02:10:30;;;;;;;5.03;2.97;;;;;;;1.38;52.92;101347.44;4225358;28;19919;-63
2024/01/08 02:12:33;;;;;;;5.65;2.65;;;;;;;1.37;52.75;101348.25;4224955;28;20475;-63
2024/01/08 02:14:36;;;;;;;2.83;2.00;;;;;;;1.10;54.35;101339.63;4224134;28;20032;-63
2024/01/08 02:16:39;;;;;;;4.40;2.28;;;;;;;1.16;54.24;101349.38;4223028;28;20130;-64
2024/01/08 02:18:42;;;;;;;4.50;2.42;;;;;;;1.39;52.98;101336.41;4220979;28;20126;-64
2024/01/08 02:20:45;;;;;;;3.72;2.05;;;;;;;1.29;52.83;101343.41;4222698;28;20059;-63
2024/01/08 02:22:50;;;;;;;3.08;2.10;;;;;;;1.28;52.90;101344.19;4222923;28;20398;-63
2024/01/08 02:24:53;;;;;;;2.97;1.90;;;;;;;1.23;52.69;101341.31;4230073;28;20042;-64
2024/01/08 02:26:58;;;;;;;3.20;1.95;;;;;;;1.14;53.58;101333.91;4229989;28;20032;-63
2024/01/08 02:29:01;;;;;;;4.05;1.70;;;;;;;1.18;53.70;101340.13;4227530;28;20512;-63
2024/01/08 02:31:05;;;;;;;4.45;1.90;;;;;;;1.15;53.51;101337.34;4228751;28;20507;-64
2024/01/08 02:33:08;;;;;;;2.38;1.60;;;;;;;1.29;52.69;101333.16;4230104;28;20088;-63
2024/01/08 02:35:11;;;;;;;2.75;1.70;;;;;;;1.22;52.97;101334.41;4230134;28;20047;-64
2024/01/08 02:37:14;;;;;;;3.03;1.80;;;;;;;1.03;53.98;101337.44;4225135;28;20085;-63
2024/01/08 02:39:18;;;;;;;2.33;1.60;;;;;;;0.98;54.33;101336.22;4229739;28;20027;-64
2024/01/08 02:41:21;;;;;;;3.47;2.00;;;;;;;1.30;53.33;101338.38;4233194;28;20488;-64
2024/01/08 02:43:25;;;;;;;6.72;2.35;;;;;;;1.15;53.83;101337.34;4233055;28;20382;-64
2024/01/08 02:45:28;;;;;;;3.47;1.90;;;;;;;1.14;54.48;101340.69;4233085;28;20039;-65
2024/01/08 02:47:33;;;;;;;3.50;1.75;;;;;;;1.23;53.92;101336.22;4227915;28;20042;-65
2024/01/08 02:49:36;;;;;;;2.97;1.67;;;;;;;1.18;54.25;101343.59;4233039;28;20056;-65
2024/01/08 02:51:39;;;;;;;3.42;2.00;;;;;;;1.34;53.63;101335.25;4230979;28;20051;-64
2024/01/08 02:53:42;;;;;;;2.70;1.80;;;;;;;1.41;52.61;101338.19;4231596;28;20069;-64
2024/01/08 02:55:46;;;;;;;2.08;1.52;;;;;;;1.36;53.19;101333.66;4233049;27;20035;-65
2024/01/08 02:57:49;;;;;;;2.20;1.65;;;;;;;1.39;52.33;101349.22;4228181;28;20035;-63
2024/01/08 02:59:52;;;;;;;3.10;1.98;;;;;;;1.39;52.44;101333.84;4231718;28;20100;-64
2024/01/08 03:01:55;;;;;;;2.22;1.60;;;;;;;1.25;53.05;101341.44;4231537;28;20130;-64
2024/01/08 03:03:57;;;;;;;2.72;1.90;;;;;;;1.16;53.22;101339.16;4232851;28;20086;-63
2024/01/08 03:06:01;;;;;;;2.85;1.60;;;;;;;1.17;53.78;101340.94;4231533;28;20118;-64
2024/01/08 03:08:04;;;;;;;4.50;1.83;;;;;;;1.30;53.16;101351.19;4229560;28;20085;-65
2024/01/08 03:10:08;;;;;;;2.28;1.55;;;;;;;1.18;53.66;101347.81;4232746;28;20056;-64
2024/01/08 03:12:13;;;;;;;3.05;1.60;;;;;;;1.37;52.75;101344.78;4231391;28;20062;-64
2024/01/08 03:14:16;;;;;;;2.30;1.83;;;;;;;1.31;52.64;101349.50;4232809;27;20119;-65
2024/01/08 03:16:19;;;;;;;1.85;1.50;;;;;;;1.33;52.54;101347.91;4229250;28;20063;-64
2024/01/08 03:18:22;;;;;;;2.78;1.73;;;;;;;1.30;51.68;101350.28;4227607;28;20504;-64
2024/01/08 03:20:25;;;;;;;3.05;1.98;;;;;;;1.35;51.87;101352.38;4219964;28;20081;-64
2024/01/08 03:22:27;;;;;;;2.28;1.45;;;;;;;1.25;52.27;101352.53;4222032;28;20038;-64
2024/01/08 03:24:30;;;;;;;1.40;1.30;;;;;;;1.17;52.84;101356.28;4230934;28;20039;-63
2024/01/08 03:26:34;;;;;;;1.42;1.23;;;;;;;1.37;51.54;101349.91;4222650;28;20051;-63
2024/01/08 03:28:38;;;;;;;2.15;1.50;;;;;;;1.23;52.04;101351.56;4231910;28;20082;-64
2024/01/08 03:30:41;;;;;;;2.30;1.42;;;;;;;1.20;51.42;101346.25;4232112;28;20044;-64
2024/01/08 03:32:44;;;;;;;2.45;1.60;;;;;;;1.26;51.46;101350.91;4224317;28;20040;-64
2024/01/08 03:34:48;;;;;;;2.38;1.52;;;;;;;1.26;51.20;101353.47;4232056;27;20450;-64
2024/01/08 03:36:52;;;;;;;2.42;1.40;;;;;;;1.33;51.31;101350.47;4230214;28;20122;-64
2024/01/08 03:38:54;;;;;;;2.95;1.45;;;;;;;1.04;52.25;101345.22;4231979;28;20035;-63
2024/01/08 03:40:57;;;;;;;3.15;1.35;;;;;;;1.34;51.22;101337.81;4232069;28;20042;-62
2024/01/08 03:43:00;;;;;;;3.00;1.40;;;;;;;1.23;51.37;101351.56;4221706;28;20119;-63
2024/01/08 03:45:05;;;;;;;2.72;1.60;;;;;;;1.04;52.13;101355.47;4229777;28;20043;-63
2024/01/08 03:47:08;;;;;;;;;;;;;;;1.06;52.34;101347.88;4232114;28;20466;-63
2024/01/08 03:49:11;;;;;;;3.13;1.48;;;;;;;1.31;51.38;101355.50;4232322;28;19923;-66
2024/01/08 03:51:14;;;;;;;2.25;1.48;;;;;;;1.24;51.32;101358.44;4232237;28;20109;-64
2024/01/08 03:53:17;;;;;;;2.10;1.90;;;;;;;1.15;51.74;101360.41;4227971;28;20166;-63
2024/01/08 03:55:20;;;;;;;2.85;1.73;;;;;;;1.28;50.96;101354.44;4227763;28;20126;-65
2024/01/08 03:57:23;;;;;;;2.72;1.35;;;;;;;1.43;50.46;101350.34;4231863;28;20067;-63
2024/01/08 03:59:26;;;;;;;2.05;1.30;;;;;;;1.21;50.78;101348.91;4224628;28;20035;-63
2024/01/08 04:01:31;;;;;;;3.53;1.73;;;;;;;1.31;50.27;101355.50;4232051;28;20096;-61
2024/01/08 04:03:34;;;;;;;2.33;1.65;;;;;;;1.30;49.99;101352.84;4230576;28;20047;-62
2024/01/08 04:05:36;;;;;;;3.50;1.70;;;;;;;1.16;50.57;101349.38;4219489;28;20036;-62
2024/01/08 04:07:40;;;;;;;1.70;1.30;;;;;;;1.30;49.03;101352.84;4213324;28;20464;-63
2024/01/08 04:09:43;;;;;;;2.20;1.65;;;;;;;1.28;49.21;101349.31;4226495;28;20042;-63
2024/01/08 04:11:45;;;;;;;2.15;1.50;;;;;;;1.36;48.66;101354.16;4230914;28;20027;-63
2024/01/08 04:13:48;;;;;;;2.95;1.55;;;;;;;1.26;48.21;101356.91;4231533;28;20035;-62
2024/01/08 04:15:51;;;;;;;2.63;1.45;;;;;;;1.20;48.83;101356.50;4231403;28;20040;-62
2024/01/08 04:17:56;;;;;;;2.70;1.63;;;;;;;1.10;49.01;101359.22;4225118;28;20043;-62
2024/01/08 04:19:59;;;;;;;3.92;1.98;;;;;;;1.13;49.15;101362.00;4225298;28;20088;-63
2024/01/08 04:22:02;;;;;;;2.08;1.48;;;;;;;1.19;48.76;101360.72;4220631;28;20081;-62
2024/01/08 04:24:05;;;;;;;2.00;1.48;;;;;;;1.17;49.08;101356.28;4218559;27;20035;-63
2024/01/08 04:26:08;;;;;;;2.17;1.75;;;;;;;1.14;48.61;101362.09;4226175;27;20035;-63
2024/01/08 04:28:11;;;;;;;2.35;1.77;;;;;;;1.15;49.03;101361.28;4218978;28;20047;-63
2024/01/08 04:30:14;;;;;;;2.65;1.60;;;;;;;1.12;48.80;101366.19;4204275;28;20097;-64
2024/01/08 04:32:17;;;;;;;2.17;1.40;;;;;;;0.91;50.13;101364.78;4219428;28;20071;-64
2024/01/08 04:34:23;;;;;;;3.22;1.83;;;;;;;1.23;54.52;101372.06;4223881;28;20032;-64
2024/01/08 04:36:26;;;;;;;3.47;1.48;;;;;;;1.45;49.68;101371.81;4225607;28;20451;-63
2024/01/08 04:38:29;;;;;;;2.67;1.50;;;;;;;1.41;48.64;101366.38;4219165;28;20036;-62
2024/01/08 04:40:32;;;;;;;2.75;1.67;;;;;;;1.23;49.23;101369.50;4222353;27;20117;-63
2024/01/08 04:42:35;;;;;;;2.78;1.83;;;;;;;1.27;49.19;101374.06;4219459;28;20497;-63
2024/01/08 04:44:38;;;;;;;2.00;1.52;;;;;;;1.27;48.64;101368.94;4226509;28;20054;-63
2024/01/08 04:46:42;;;;;;;3.20;1.60;;;;;;;1.27;48.95;101366.38;4218198;27;20048;-63
2024/01/08 04:48:45;;;;;;;4.05;1.80;;;;;;;1.10;49.57;101366.91;4210666;28;20036;-63
2024/01/08 04:50:49;;;;;;;2.42;1.60;;;;;;;1.28;49.14;101372.34;4222154;28;20044;-64
2024/01/08 04:52:52;;;;;;;4.35;2.20;;;;;;;1.25;49.14;101370.47;4221535;27;20120;-65
2024/01/08 04:54:56;;;;;;;1.95;1.60;;;;;;;1.26;48.71;101372.25;4212885;28;20142;-66
2024/01/08 04:56:59;;;;;;;1.63;1.30;;;;;;;1.29;48.36;101375.03;4218748;27;20520;-64
2024/01/08 04:59:02;;;;;;;3.22;1.80;;;;;;;1.13;49.01;101385.03;4243775;27;20095;-64
2024/01/08 05:01:05;;;;;;;2.15;1.70;;;;;;;1.34;48.20;101386.47;4231027;27;20040;-66
2024/01/08 05:03:09;;;;;;;2.20;1.75;;;;;;;1.18;48.39;101375.97;4229931;28;20036;-66
2024/01/08 05:05:12;;;;;;;2.45;1.60;;;;;;;1.27;48.48;101385.94;4246881;27;20035;-65
2024/01/08 05:07:17;;;;;;;1.67;1.38;;;;;;;1.19;48.41;101383.75;4243057;27;20057;-65
2024/01/08 05:09:20;;;;;;;2.63;1.80;;;;;;;1.12;49.19;101385.81;4230801;28;20074;-65
2024/01/08 05:11:22;;;;;;;3.58;1.92;;;;;;;1.13;48.91;101378.22;4230833;28;20031;-63
2024/01/08 05:13:26;;;;;;;2.72;1.70;;;;;;;1.28;48.25;101387.72;4225412;28;20035;-62
2024/01/08 05:15:28;;;;;;;2.55;1.48;;;;;;;1.19;48.78;101385.44;4229571;28;20069;-63
2024/01/08 05:17:31;;;;;;;3.42;1.80;;;;;;;1.26;48.23;101381.63;4225675;27;20036;-63
2024/01/08 05:19:33;;;;;;;4.32;2.10;;;;;;;1.06;49.32;101383.72;4236994;27;20044;-63
2024/01/08 05:21:36;;;;;;;2.60;1.75;;;;;;;1.10;49.55;101387.41;4230700;28;20036;-63
2024/01/08 05:23:41;;;;;;;1.95;1.50;;;;;;;1.11;49.41;101386.59;4229258;28;20039;-63
2024/01/08 05:25:44;;;;;;;3.30;2.20;;;;;;;1.24;49.29;101384.06;4230650;28;20074;-64
2024/01/08 05:27:47;;;;;;;2.75;1.58;;;;;;;1.31;48.45;101390.50;4229149;28;20032;-64
2024/01/08 05:29:50;;;;;;;2.92;1.63;;;;;;;1.29;48.63;101386.94;4230627;28;20062;-63
2024/01/08 05:31:53;;;;;;;3.50;1.80;;;;;;;1.29;48.17;101382.72;4226913;28;20036;-63
2024/01/08 05:33:56;;;;;;;2.25;1.70;;;;;;;1.12;48.85;101385.81;4220778;28;20035;-63
2024/01/08 05:36:00;;;;;;;2.88;1.80;;;;;;;0.91;49.92;101393.81;4230452;28;20032;-63
2024/01/08 05:38:03;;;;;;;2.65;2.03;;;;;;;1.00;49.96;101389.31;4224670;28;20076;-63
2024/01/08 05:40:09;;;;;;;2.63;1.80;;;;;;;0.99;49.86;101402.94;4222858;28;20097;-63
2024/01/08 05:42:12;;;;;;;2.20;1.50;;;;;;;1.14;49.30;101389.34;4229304;28;20489;-63
2024/01/08 05:44:15;;;;;;;3.13;1.60;;;;;;;1.28;48.94;101396.28;4229185;28;20043;-63
2024/01/08 05:46:18;;;;;;;3.22;1.95;;;;;;;1.31;48.15;101388.81;4212272;28;20044;-65
2024/01/08 05:48:21;;;;;;;2.88;2.00;;;;;;;1.12;48.46;101390.94;4210930;28;20068;-64
2024/01/08 05:50:25;;;;;;;2.95;1.90;;;;;;;1.12;48.73;101394.38;4230312;28;20042;-64
2024/01/08 05:52:28;;;;;;;3.33;2.00;;;;;;;1.24;48.09;101399.44;4230489;28;20131;-64
2024/01/08 05:54:31;;;;;;;3.13;2.28;;;;;;;1.13;48.82;101402.97;4228323;28;20048;-64
2024/01/08 05:56:37;;;;;;;3.13;1.75;;;;;;;0.94;49.37;101398.28;4229222;28;20051;-64
2024/01/08 05:58:39;;;;;;;2.45;1.70;;;;;;;1.10;49.20;101405.31;4222487;28;20459;-65
2024/01/08 06:00:42;;;;;;;2.70;1.93;;;;;;;1.30;48.49;101407.53;4230325;28;20063;-64
2024/01/08 06:02:45;;;;;;;2.53;1.90;;;;;;;1.22;48.26;101411.25;4230454;28;20519;-63
2024/01/08 06:04:48;;;;;;;2.40;1.70;;;;;;;0.93;49.57;101411.84;4230339;28;20032;-63
2024/01/08 06:06:52;;;;;;;2.42;1.83;;;;;;;0.96;50.24;101409.50;4230191;28;20047;-63
2024/01/08 06:08:54;;;;;;;2.90;2.20;;;;;;;1.02;50.12;101410.81;4223012;28;20039;-63
2024/01/08 06:10:57;;;;;;;3.47;2.22;;;;;;;1.13;49.35;101405.53;4230207;28;20039;-63
2024/01/08 06:13:04;;;;;;;2.47;1.90;;;;;;;1.22;48.54;101406.13;4230325;28;20461;-64
2024/01/08 06:15:09;;;;;;;2.83;2.05;;;;;;;1.17;48.67;101408.41;4233026;28;20036;-63
2024/01/08 06:17:12;;;;;;;3.35;1.83;;;;;;;1.14;49.23;101412.41;4233193;28;20458;-63
2024/01/08 06:19:15;;;;;;;3.40;1.75;;;;;;;1.09;49.89;101403.53;4226369;28;20043;-63
2024/01/08 06:21:18;;;;;;;3.33;2.10;;;;;;;1.10;49.76;101411.31;4233453;27;20038;-63
2024/01/08 06:23:20;;;;;;;2.53;1.85;;;;;;;1.16;49.89;101401.47;4227913;28;20132;-63
2024/01/08 06:25:23;;;;;;;2.22;1.80;;;;;;;1.16;49.61;101405.72;4225298;28;20067;-63
2024/01/08 06:27:25;;;;;;;2.78;1.90;;;;;;;1.07;50.40;101407.66;4233130;28;20043;-63
2024/01/08 06:29:30;;;;;;;2.65;1.75;;;;;;;1.32;48.59;101398.28;4226523;28;20081;-63
2024/01/08 06:31:33;;;;;;;3.97;2.10;;;;;;;1.18;49.22;101401.59;4233190;28;20383;-63
2024/01/08 06:33:37;;;;;;;2.67;1.92;;;;;;;1.08;49.42;101399.19;4233329;28;20043;-63
2024/01/08 06:35:41;;;;;;;4.03;2.17;;;;;;;1.10;49.29;101402.75;4233311;28;20096;-63
2024/01/08 06:37:44;;;;;;;2.97;1.93;;;;;;;1.23;49.34;101397.69;4231380;28;20093;-63
2024/01/08 06:39:47;;;;;;;4.22;2.10;;;;;;;1.14;49.47;101402.16;4224150;28;20344;-64
2024/01/08 06:41:50;;;;;;;3.90;2.33;;;;;;;1.24;48.94;101402.00;4231756;28;20105;-64
2024/01/08 06:43:53;;;;;;;2.22;1.58;;;;;;;1.01;50.27;101401.34;4230917;28;20527;-64
2024/01/08 06:45:56;;;;;;;3.60;2.00;;;;;;;1.03;50.03;101399.75;4238082;27;20083;-64
2024/01/08 06:47:59;;;;;;;3.63;1.90;;;;;;;1.34;48.82;101404.41;4246806;27;20084;-64
2024/01/08 06:50:03;;;;;;;3.13;1.85;;;;;;;1.35;48.57;101406.16;4229261;28;20039;-64
2024/01/08 06:52:07;;;;;;;2.65;1.92;;;;;;;1.28;48.49;101401.41;4229862;28;20493;-64
2024/01/08 06:54:09;;;;;;;4.15;2.03;;;;;;;1.19;48.58;101409.38;4229573;28;20483;-64
2024/01/08 06:56:12;;;;;;;4.97;2.30;;;;;;;1.11;48.84;101409.63;4232809;28;20043;-64
2024/01/08 06:58:15;;;;;;;2.53;1.80;;;;;;;1.03;49.37;101410.00;4231284;28;20077;-63
2024/01/08 07:00:19;;;;;;;3.33;1.90;;;;;;;1.10;49.38;101413.00;4233034;28;20126;-64
2024/01/08 07:02:22;;;;;;;3.83;2.20;;;;;;;0.96;50.06;101407.81;4231578;28;20032;-66
2024/01/08 07:04:25;;;;;;;4.05;2.22;;;;;;;0.98;50.07;101415.59;4236958;27;20453;-64
2024/01/08 07:06:28;;;;;;;4.03;2.45;;;;;;;1.35;48.56;101416.41;4232692;28;20039;-64
2024/01/08 07:08:31;;;;;;;2.88;1.92;;;;;;;1.19;48.96;101416.19;4223968;28;20036;-64
2024/01/08 07:10:35;;;;;;;3.58;2.22;;;;;;;1.18;48.66;101407.63;4232609;28;20043;-64
2024/01/08 07:12:38;;;;;;;3.38;2.10;;;;;;;1.08;49.47;101412.00;4231483;28;20089;-64
2024/01/08 07:14:46;;;;;;;2.42;1.85;;;;;;;1.04;49.04;101422.03;4231133;28;20089;-64
2024/01/08 07:16:49;;;;;;;3.08;2.08;;;;;;;1.15;48.91;101415.06;4231487;28;20485;-64
2024/01/08 07:18:54;;;;;;;2.38;1.73;;;;;;;1.07;49.12;101420.44;4235709;27;20396;-66
2024/01/08 07:20:57;;;;;;;5.78;2.22;;;;;;;1.05;48.89;101420.34;4241661;27;20074;-65
2024/01/08 07:22:59;;;;;;;3.50;2.17;;;;;;;0.97;49.04;101430.06;4243617;27;20035;-65
2024/01/08 07:25:03;;;;;;;3.42;1.90;;;;;;;1.16;48.25;101421.97;4229668;28;20070;-64
2024/01/08 07:27:06;;;;;;;3.35;2.15;;;;;;;1.04;49.01;101422.03;4232132;28;20031;-63
2024/01/08 07:29:09;;;;;;;2.53;1.83;;;;;;;1.14;48.46;101423.56;4232268;28;20043;-63
2024/01/08 07:31:11;;;;;;;2.88;1.92;;;;;;;1.00;48.93;101420.03;4230755;28;20466;-64
2024/01/08 07:33:14;;;;;;;4.43;1.95;;;;;;;0.92;49.13;101428.88;4228304;28;20058;-63
2024/01/08 07:35:18;;;;;;;4.05;2.10;;;;;;;0.97;49.04;101424.97;4230733;28;20040;-63
2024/01/08 07:37:21;;;;;;;3.13;1.90;;;;;;;0.96;49.61;101428.28;4231580;28;20126;-64
2024/01/08 07:39:24;;;;;;;3.15;2.08;;;;;;;1.12;48.85;101427.66;4226287;28;20065;-65
2024/01/08 07:41:27;;;;;;;3.03;1.98;;;;;;;1.07;48.54;101440.94;4232001;28;20126;-65
2024/01/08 07:43:30;;;;;;;3.55;2.10;;;;;;;1.17;48.59;101438.25;4227817;28;20076;-65
2024/01/08 07:45:33;;;;;;;3.10;2.17;;;;;;;1.18;48.31;101433.22;4224804;28;20036;-64
2024/01/08 07:47:35;;;;;;;3.88;2.25;;;;;;;1.06;48.61;101439.19;4231561;28;20130;-65
2024/01/08 07:49:39;;;;;;;3.92;2.28;;;;;;;1.06;48.46;101442.63;4230966;28;20044;-64
2024/01/08 07:51:43;;;;;;;4.22;2.42;;;;;;;1.00;48.87;101444.75;4224797;28;20039;-64
2024/01/08 07:53:45;;;;;;;3.00;2.28;;;;;;;1.01;48.94;101436.31;4230030;28;20039;-63
2024/01/08 07:55:49;;;;;;;6.30;2.35;;;;;;;0.87;49.48;101449.03;4231691;28;20061;-64
2024/01/08 07:57:52;;;;;;;3.17;2.22;;;;;;;1.11;48.39;101463.41;4230426;28;20043;-63
2024/01/08 07:59:55;;;;;;;3.45;2.15;;;;;;;1.01;48.71;101457.66;4231912;28;20096;-63
2024/01/08 08:01:58;;;;;;;3.95;2.40;;;;;;;0.85;49.81;101467.66;4224076;28;20048;-63
2024/01/08 08:04:01;;;;;;;4.45;2.38;;;;;;;1.22;48.07;101455.69;4229163;28;20054;-63
2024/01/08 08:06:05;;;;;;;4.75;2.70;;;;;;;1.06;48.63;101459.66;4238151;27;20088;-63
2024/01/08 08:08:09;;;;;;;3.30;2.20;;;;;;;0.95;48.81;101457.25;4248621;27;20381;-63
2024/01/08 08:10:12;;;;;;;5.38;2.33;;;;;;;1.03;48.65;101463.78;4222194;28;20508;-63
2024/01/08 08:12:15;;;;;;;2.83;1.85;;;;;;;0.85;49.44;101470.22;4228743;28;20520;-63
2024/01/08 08:14:18;;;;;;;4.25;2.60;;;;;;;0.94;49.27;101475.94;4231323;28;20477;-63
2024/01/08 08:16:21;;;;;;;5.45;2.78;;;;;;;1.09;48.61;101470.13;4214817;28;20040;-62
2024/01/08 08:18:27;;;;;;;3.60;2.38;;;;;;;0.85;49.00;101473.63;4214625;28;20093;-64
2024/01/08 08:20:30;;;;;;;10.88;5.05;;;;;;;1.01;48.48;101464.47;4230384;27;20523;-67
2024/01/08 08:22:33;;;;;;;5.60;2.97;;;;;;;0.94;49.11;101468.28;4248408;27;20400;-65
2024/01/08 08:24:36;;;;;;;8.45;4.72;;;;;;;1.19;48.00;101468.28;4230100;27;20071;-64
2024/01/08 08:26:39;;;;;;;10.40;4.93;;;;;;;0.99;48.56;101469.50;4230061;28;20439;-64
2024/01/08 08:28:42;;;;;;;4.15;2.60;;;;;;;1.02;48.72;101469.69;4228398;28;20040;-64
2024/01/08 08:30:46;;;;;;;3.80;2.63;;;;;;;1.09;48.73;101477.81;4231185;28;20108;-64
2024/01/08 08:32:50;;;;;;;5.25;2.20;;;;;;;1.00;49.03;101481.50;4231664;28;20404;-68
2024/01/08 08:34:52;;;;;;;6.63;2.70;;;;;;;1.04;48.65;101473.25;4230191;28;20048;-66
2024/01/08 08:36:55;;;;;;;4.65;2.58;;;;;;;0.87;49.14;101483.97;4214698;28;20124;-65
2024/01/08 08:38:58;;;;;;;4.57;2.38;;;;;;;0.65;50.12;101479.91;4230109;27;20527;-66
2024/01/08 08:41:03;;;;;;;4.07;2.53;;;;;;;1.07;48.98;101477.69;4229227;28;20063;-66
2024/01/08 08:43:06;;;;;;;4.05;2.63;;;;;;;0.99;49.10;101479.72;4229834;28;20123;-64
2024/01/08 08:45:09;;;;;;;4.13;2.30;;;;;;;1.02;48.62;101474.81;4231282;27;20489;-64
2024/01/08 08:47:12;;;;;;;3.40;2.50;;;;;;;1.03;48.62;101480.81;4229727;28;20101;-66
2024/01/08 08:49:16;;;;;;;4.88;2.75;;;;;;;1.08;48.66;101488.81;4212118;28;20489;-66
2024/01/08 08:51:19;;;;;;;4.80;2.75;;;;;;;0.98;48.84;101484.72;4229999;28;20133;-65
2024/01/08 08:53:22;;;;;;;3.67;2.22;;;;;;;0.87;49.30;101489.97;4214671;28;20036;-65
2024/01/08 08:55:25;;;;;;;4.20;2.53;;;;;;;0.81;49.88;101493.81;4228485;28;20039;-65
2024/01/08 08:57:29;;;;;;;4.38;2.60;;;;;;;0.93;49.71;101499.75;4227167;28;20035;-65
2024/01/08 08:59:31;;;;;;;3.63;2.03;;;;;;;1.07;48.89;101494.72;4228728;28;20058;-63
2024/01/08 09:01:34;;;;;;;5.72;3.03;;;;;;;1.00;48.86;101501.09;4229484;28;20089;-65
2024/01/08 09:03:37;;;;;;;7.35;3.95;;;;;;;0.86;50.06;101500.13;4230877;28;20088;-64
2024/01/08 09:05:42;;;;;;;6.70;4.20;;;;;;;1.13;49.19;101505.41;4238096;27;20038;-65
2024/01/08 09:07:49;;;;;;;7.15;3.80;;;;;;;1.02;49.53;101502.06;4243282;27;20055;-65
2024/01/08 09:09:52;;;;;;;6.00;3.70;;;;;;;0.91;49.27;101506.47;4235881;27;20465;-65
2024/01/08 09:11:56;;;;;;;4.28;2.80;;;;;;;1.15;48.80;101498.69;4229449;28;20050;-65
2024/01/08 09:13:59;;;;;;;6.07;3.22;;;;;;;0.98;49.58;101503.56;4230906;28;20547;-65
2024/01/08 09:16:03;;;;;;;6.90;3.60;;;;;;;1.18;49.26;101504.03;4230797;28;20063;-65
2024/01/08 09:18:06;;;;;;;4.20;2.50;;;;;;;0.84;49.94;101506.81;4227802;28;20810;-64
2024/01/08 09:20:11;;;;;;;3.88;2.67;;;;;;;0.99;50.15;101510.47;4230708;28;20093;-65
2024/01/08 09:22:14;;;;;;;6.28;3.22;;;;;;;0.91;50.39;101508.16;4230737;28;20036;-64
2024/01/08 09:24:17;;;;;;;4.75;2.67;;;;;;;1.01;50.68;101508.00;4228268;28;20096;-65
2024/01/08 09:26:19;;;;;;;4.25;2.63;;;;;;;1.08;50.03;101509.31;4228677;28;20043;-65
2024/01/08 09:28:22;;;;;;;6.22;3.35;;;;;;;0.85;51.01;101521.41;4229082;28;20066;-65
2024/01/08 09:30:26;;;;;;;7.05;3.05;;;;;;;0.84;51.19;101524.72;4238999;27;20046;-64
2024/01/08 09:32:29;;;;;;;6.20;3.45;;;;;;;0.98;50.41;101520.56;4247604;27;20522;-65
2024/01/08 09:34:32;;;;;;;5.93;2.70;;;;;;;0.85;51.09;101526.53;4247556;27;20038;-64
2024/01/08 09:36:35;;;;;;;5.05;3.13;;;;;;;0.91;51.07;101523.50;4234611;28;20044;-64
2024/01/08 09:38:37;;;;;;;4.70;2.80;;;;;;;1.04;50.85;101533.81;4230177;28;20035;-64
2024/01/08 09:40:42;;;;;;;4.78;2.63;;;;;;;1.16;48.41;101534.66;4229489;28;20071;-65